Time;durP1;ratioP1;P1;durP2;ratioP2;P2;SDS_P1;SDS_P2;PMS_P1;PMS_P2;Temp;Humidity;BMP_temperature;BMP_pressure;BME280_temperature;BME280_humidity;BME280_pressure;Samples;Min_cycle;Max_cycle;Signal;HPM_P1;HPM_P2
2021/05/01 00:01:22;;;;;;;17.75;9.05;;;;;;;21.37;53.64;99434.41;5035715;28;20463;-37
2021/05/01 00:03:48;;;;;;;20.55;9.20;;;;;;;21.32;54.09;99431.72;5035997;28;20022;-38
2021/05/01 00:06:13;;;;;;;19.90;9.30;;;;;;;21.36;54.06;99438.19;5036214;28;20524;-38
2021/05/01 00:08:38;;;;;;;17.48;9.38;;;;;;;21.15;54.77;99424.84;5036184;28;20381;-37
2021/05/01 00:11:04;;;;;;;15.35;8.38;;;;;;;21.01;54.48;99426.53;5036129;28;20024;-38
2021/05/01 00:13:30;;;;;;;17.00;9.13;;;;;;;20.94;54.93;99432.25;5035507;28;20037;-37
2021/05/01 00:15:55;;;;;;;18.92;9.10;;;;;;;20.98;54.66;99427.91;5030720;28;20070;-37
2021/05/01 00:18:21;;;;;;;16.17;8.75;;;;;;;20.89;55.03;99437.69;5036091;28;20021;-38
2021/05/01 00:20:46;;;;;;;17.40;9.63;;;;;;;20.88;55.08;99428.75;5036382;28;20123;-38
2021/05/01 00:23:12;;;;;;;17.90;9.20;;;;;;;20.74;54.92;99425.06;5036194;28;20021;-38
2021/05/01 00:25:37;;;;;;;15.65;10.10;;;;;;;20.79;54.87;99430.47;5035872;28;20359;-38
2021/05/01 00:28:03;;;;;;;17.15;9.38;;;;;;;20.83;54.75;99433.41;5034370;28;20028;-39
2021/05/01 00:30:29;;;;;;;19.67;9.77;;;;;;;20.83;54.65;99412.59;5035647;28;20099;-38
2021/05/01 00:32:55;;;;;;;14.23;9.07;;;;;;;20.85;54.57;99404.19;5035682;28;20025;-38
2021/05/01 00:35:20;;;;;;;18.05;9.88;;;;;;;20.88;54.86;99411.72;5035799;28;20028;-38
2021/05/01 00:37:46;;;;;;;21.45;9.18;;;;;;;20.76;54.72;99406.66;5031414;28;20411;-38
2021/05/01 00:40:12;;;;;;;16.15;8.77;;;;;;;20.78;54.96;99418.00;5032855;28;20045;-38
2021/05/01 00:42:37;;;;;;;17.52;9.20;;;;;;;20.99;54.11;99410.59;5032667;28;20104;-38
2021/05/01 00:45:06;;;;;;;19.85;9.88;;;;;;;20.47;55.59;99420.84;5032625;28;20056;-38
2021/05/01 00:47:32;;;;;;;18.98;9.35;;;;;;;20.66;55.09;99426.47;5032497;28;20060;-38
2021/05/01 00:49:57;;;;;;;16.92;8.93;;;;;;;20.52;55.66;99422.69;5032610;28;20049;-38
2021/05/01 00:52:23;;;;;;;15.02;8.48;;;;;;;20.43;55.63;99416.28;5032484;28;20033;-38
2021/05/01 00:54:48;;;;;;;17.98;9.23;;;;;;;20.21;56.48;99414.72;5030905;28;20028;-38
2021/05/01 00:57:14;;;;;;;17.17;9.27;;;;;;;20.36;56.04;99410.34;5014971;28;20028;-39
2021/05/01 00:59:39;;;;;;;18.63;8.88;;;;;;;20.54;55.46;99419.72;5012434;28;20364;-38
2021/05/01 01:02:05;;;;;;;16.58;8.73;;;;;;;20.57;55.77;99419.97;5032357;28;20032;-38
2021/05/01 01:04:31;;;;;;;17.52;8.77;;;;;;;20.54;55.79;99427.81;5032022;28;20056;-37
2021/05/01 01:06:56;;;;;;;18.77;9.15;;;;;;;20.53;55.78;99413.50;5032216;28;20025;-38
2021/05/01 01:09:22;;;;;;;20.30;8.73;;;;;;;20.65;55.63;99418.63;5014527;28;20021;-39
2021/05/01 01:11:47;;;;;;;18.33;8.48;;;;;;;20.63;55.46;99424.28;5032085;28;20052;-38
2021/05/01 01:14:13;;;;;;;15.05;8.50;;;;;;;20.69;55.12;99425.91;5032319;28;20477;-38
2021/05/01 01:16:40;;;;;;;15.65;8.45;;;;;;;20.44;55.44;99397.06;5031856;28;20032;-38
2021/05/01 01:19:06;;;;;;;15.38;8.50;;;;;;;20.60;55.57;99432.97;5031640;28;20151;-38
2021/05/01 01:21:44;;;;;;;18.05;8.70;;;;;;;20.64;55.60;99422.44;5031804;28;20132;-37
2021/05/01 01:24:09;;;;;;;15.32;8.35;;;;;;;20.59;55.67;99434.03;5031939;28;20041;-38
2021/05/01 01:26:36;;;;;;;18.67;8.82;;;;;;;20.63;55.16;99429.69;5031818;28;20440;-38
2021/05/01 01:29:01;;;;;;;17.48;8.68;;;;;;;20.71;55.13;99431.00;5031841;28;20084;-38
2021/05/01 01:31:27;;;;;;;17.13;8.40;;;;;;;20.73;55.57;99428.03;5032117;28;20065;-38
2021/05/01 01:33:52;;;;;;;15.40;8.90;;;;;;;20.63;55.41;99431.59;5031883;28;20432;-39
2021/05/01 01:36:18;;;;;;;14.32;8.60;;;;;;;20.37;56.27;99429.00;5031504;28;20017;-38
2021/05/01 01:38:43;;;;;;;15.23;8.52;;;;;;;20.15;56.69;99423.13;5031750;28;20094;-39
2021/05/01 01:41:09;;;;;;;18.27;8.88;;;;;;;19.75;57.60;99417.50;5031670;28;20021;-38
2021/05/01 01:43:36;;;;;;;17.10;9.88;;;;;;;20.05;56.97;99413.16;5030339;28;20029;-39
2021/05/01 01:46:02;;;;;;;19.25;8.88;;;;;;;20.35;56.11;99414.13;5031587;28;20024;-39
2021/05/01 01:48:27;;;;;;;19.02;9.23;;;;;;;20.31;56.13;99416.56;5031239;28;20022;-38
2021/05/01 01:50:53;;;;;;;12.77;8.45;;;;;;;20.25;56.32;99413.06;5031892;28;20022;-38
2021/05/01 01:53:20;;;;;;;14.63;9.13;;;;;;;20.27;56.29;99407.38;5031166;28;20445;-38
2021/05/01 01:55:45;;;;;;;14.60;8.85;;;;;;;20.38;55.98;99416.28;5030995;28;20453;-38
2021/05/01 01:58:11;;;;;;;20.55;9.60;;;;;;;20.35;55.99;99414.91;5029896;28;20037;-38
2021/05/01 02:00:36;;;;;;;16.83;9.02;;;;;;;20.30;56.04;99407.66;5031102;28;20500;-38
2021/05/01 02:03:02;;;;;;;19.23;9.40;;;;;;;20.28;55.89;99415.22;5030952;28;20033;-38
2021/05/01 02:05:27;;;;;;;20.98;9.68;;;;;;;20.34;56.03;99415.22;5031390;28;20028;-38
2021/05/01 02:07:53;;;;;;;15.60;9.18;;;;;;;20.35;55.66;99422.22;5031209;28;20017;-39
2021/05/01 02:10:18;;;;;;;17.50;8.93;;;;;;;20.34;56.00;99412.50;5029737;28;20014;-38
2021/05/01 02:12:44;;;;;;;18.77;9.93;;;;;;;20.35;55.70;99420.31;5030974;28;20029;-38
2021/05/01 02:15:14;;;;;;;15.25;9.30;;;;;;;20.27;55.83;99419.00;5031043;28;20079;-38
2021/05/01 02:17:41;;;;;;;14.60;9.10;;;;;;;20.29;55.88;99416.81;5031026;28;20026;-38
2021/05/01 02:20:08;;;;;;;18.75;9.23;;;;;;;20.09;56.51;99406.09;5031020;28;20018;-38
2021/05/01 02:22:34;;;;;;;13.80;8.52;;;;;;;20.09;56.26;99425.03;5030871;28;20028;-39
2021/05/01 02:24:59;;;;;;;15.40;8.95;;;;;;;20.22;56.23;99421.75;5030850;28;20047;-38
2021/05/01 02:27:25;;;;;;;19.27;9.05;;;;;;;20.09;56.45;99420.41;5030640;28;20053;-39
2021/05/01 02:29:50;;;;;;;20.20;8.55;;;;;;;20.08;56.44;99426.88;5030874;28;20032;-38
2021/05/01 02:32:15;;;;;;;18.10;8.85;;;;;;;20.06;56.59;99430.97;5031069;28;20040;-38
2021/05/01 02:34:41;;;;;;;19.25;8.77;;;;;;;20.14;56.62;99432.28;5030802;28;20030;-38
2021/05/01 02:37:07;;;;;;;15.18;8.82;;;;;;;20.04;56.81;99417.72;5030802;28;20025;-38
2021/05/01 02:39:32;;;;;;;19.88;9.25;;;;;;;19.90;57.08;99420.19;5030608;28;20161;-39
2021/05/01 02:41:58;;;;;;;22.08;8.48;;;;;;;19.98;56.85;99418.03;5030859;28;20022;-39
2021/05/01 02:44:23;;;;;;;18.13;8.40;;;;;;;20.03;56.80;99429.63;5030257;28;20028;-38
2021/05/01 02:46:49;;;;;;;17.75;8.80;;;;;;;20.15;56.34;99444.72;5028958;28;20030;-38
2021/05/01 02:49:14;;;;;;;18.00;8.82;;;;;;;20.06;57.02;99441.75;5030291;28;20110;-38
2021/05/01 02:51:40;;;;;;;13.63;8.23;;;;;;;20.04;56.22;99442.03;5030257;28;20401;-39
2021/05/01 02:54:06;;;;;;;20.15;8.23;;;;;;;20.00;56.33;99449.06;5030326;28;20014;-39
2021/05/01 02:56:31;;;;;;;16.08;8.30;;;;;;;19.74;57.28;99450.97;5030278;28;20025;-39
2021/05/01 02:58:56;;;;;;;17.25;8.27;;;;;;;19.44;57.95;99454.44;5029832;28;20029;-39
2021/05/01 03:01:22;;;;;;;18.55;8.65;;;;;;;19.69;57.07;99445.56;5028726;28;20025;-38
2021/05/01 03:03:47;;;;;;;12.35;7.03;;;;;;;19.79;57.96;99450.19;5030067;28;20028;-39
2021/05/01 03:06:16;;;;;;;18.00;7.95;;;;;;;19.96;56.89;99444.50;5030336;28;20475;-39
2021/05/01 03:08:41;;;;;;;13.63;7.60;;;;;;;20.27;57.23;99431.72;5029973;28;20018;-37
2021/05/01 03:11:07;;;;;;;17.33;7.70;;;;;;;20.50;55.41;99430.28;5030283;28;20028;-38
2021/05/01 03:13:33;;;;;;;12.68;7.63;;;;;;;20.62;55.45;99436.22;5029945;28;20130;-38
2021/05/01 03:15:58;;;;;;;13.02;7.43;;;;;;;20.73;55.23;99436.16;5029939;28;20032;-38
2021/05/01 03:18:24;;;;;;;22.13;8.52;;;;;;;20.60;54.22;99394.31;5029761;28;20373;-38
2021/05/01 03:20:50;;;;;;;16.20;7.90;;;;;;;20.84;54.35;99426.91;5029908;28;20024;-38
2021/05/01 03:23:16;;;;;;;14.73;7.97;;;;;;;20.87;53.74;99419.03;5029525;28;20031;-38
2021/05/01 03:25:41;;;;;;;13.82;7.35;;;;;;;20.87;54.76;99431.75;5028487;28;20018;-38
2021/05/01 03:28:06;;;;;;;34.92;21.02;;;;;;;21.02;53.92;99437.09;5029806;28;20047;-37
2021/05/01 03:30:32;;;;;;;45.20;29.27;;;;;;;20.62;54.98;99432.69;5029616;28;20092;-38
2021/05/01 03:32:57;;;;;;;19.20;11.43;;;;;;;20.46;55.32;99431.91;5029717;28;20093;-38
2021/05/01 03:35:23;;;;;;;14.52;8.82;;;;;;;20.30;55.38;99429.25;5029778;28;20346;-38
2021/05/01 03:37:48;;;;;;;26.17;17.15;;;;;;;20.44;54.96;99428.69;5029782;28;20025;-37
2021/05/01 03:40:14;;;;;;;31.13;19.92;;;;;;;20.33;55.43;99427.91;5029772;28;20079;-37
2021/05/01 03:42:40;;;;;;;23.83;12.65;;;;;;;20.58;54.93;99426.19;5029523;28;20037;-38
2021/05/01 03:45:06;;;;;;;15.38;8.73;;;;;;;20.91;53.70;99443.63;5028186;28;20048;-38
2021/05/01 03:47:32;;;;;;;16.48;8.88;;;;;;;20.53;54.58;99435.13;5029549;28;20457;-39
2021/05/01 03:49:57;;;;;;;16.00;9.00;;;;;;;20.66;54.72;99439.16;5029338;28;20083;-38
2021/05/01 03:52:23;;;;;;;15.60;8.48;;;;;;;20.84;53.61;99443.13;5028011;28;20103;-40
2021/05/01 03:54:48;;;;;;;14.77;8.13;;;;;;;20.90;53.90;99452.81;5029569;28;20083;-38
2021/05/01 03:57:14;;;;;;;14.27;8.27;;;;;;;21.00;53.35;99452.78;5029720;28;20311;-37
2021/05/01 03:59:39;;;;;;;17.75;8.68;;;;;;;21.06;53.80;99451.66;5029769;28;20060;-39
2021/05/01 04:02:05;;;;;;;23.30;11.40;;;;;;;21.04;53.44;99456.53;5028338;28;20099;-37
2021/05/01 04:04:31;;;;;;;61.13;37.95;;;;;;;21.01;53.46;99457.09;5029230;28;20489;-38
2021/05/01 04:06:56;;;;;;;28.70;15.55;;;;;;;20.56;54.57;99450.81;5029396;28;20105;-38
2021/05/01 04:09:22;;;;;;;28.67;16.10;;;;;;;20.45;54.82;99460.03;5027925;28;20390;-38
2021/05/01 04:11:48;;;;;;;16.90;10.25;;;;;;;20.49;54.54;99456.50;5030035;28;20042;-38
2021/05/01 04:14:13;;;;;;;21.55;13.73;;;;;;;20.62;54.35;99459.72;5032885;28;20032;-51
2021/05/01 04:16:38;;;;;;;22.58;9.68;;;;;;;20.51;54.66;99461.63;5033060;28;20022;-50
2021/05/01 04:19:04;;;;;;;21.73;8.95;;;;;;;20.67;54.43;99465.91;5033233;28;20014;-50
2021/05/01 04:21:29;;;;;;;15.95;8.98;;;;;;;20.44;55.66;99464.63;5033004;28;20021;-48
2021/05/01 04:23:55;;;;;;;18.02;8.43;;;;;;;20.30;56.29;99469.00;5032778;28;20026;-49
2021/05/01 04:26:21;;;;;;;48.72;31.73;;;;;;;20.53;55.63;99458.66;5031422;28;20021;-49
2021/05/01 04:28:52;;;;;;;36.33;22.40;;;;;;;20.94;54.37;99467.41;5032798;28;20017;-51
2021/05/01 04:31:17;;;;;;;37.95;22.58;;;;;;;20.87;54.69;99470.44;5032395;28;20021;-50
2021/05/01 04:33:43;;;;;;;22.33;11.32;;;;;;;21.17;53.72;99470.53;5032616;28;20037;-50
2021/05/01 04:36:08;;;;;;;14.68;8.18;;;;;;;21.32;52.90;99465.00;5032395;28;20434;-50
2021/05/01 04:38:34;;;;;;;15.40;9.02;;;;;;;21.41;53.24;99473.34;5032117;28;20056;-50
2021/05/01 04:40:59;;;;;;;18.80;8.40;;;;;;;21.60;52.14;99476.22;5029434;28;20056;-51
2021/05/01 04:43:25;;;;;;;21.52;9.80;;;;;;;21.51;52.75;99484.13;5029604;28;20113;-49
2021/05/01 04:45:52;;;;;;;18.45;9.40;;;;;;;21.42;53.43;99485.81;5021295;28;20029;-53
2021/05/01 04:48:17;;;;;;;16.70;8.55;;;;;;;21.42;54.13;99478.47;5032157;28;20139;-50
2021/05/01 04:50:43;;;;;;;17.52;10.48;;;;;;;21.55;53.50;99487.91;5032823;28;20074;-51
2021/05/01 04:53:08;;;;;;;28.38;12.05;;;;;;;22.02;52.40;99483.69;5032705;28;20106;-53
2021/05/01 04:55:34;;;;;;;23.10;9.70;;;;;;;22.21;52.61;99481.06;5032418;28;20338;-52
2021/05/01 04:57:59;;;;;;;22.63;8.70;;;;;;;22.63;51.24;99476.81;5032769;28;20022;-49
2021/05/01 05:00:25;;;;;;;18.40;8.90;;;;;;;22.55;50.95;99454.97;5032925;28;20417;-52
2021/05/01 05:02:50;;;;;;;18.15;8.05;;;;;;;22.55;51.12;99461.22;5032413;28;20025;-50
2021/05/01 05:05:16;;;;;;;18.33;8.40;;;;;;;22.73;50.28;99461.53;5032052;28;20055;-51
2021/05/01 05:07:42;;;;;;;18.20;9.57;;;;;;;22.80;50.10;99467.41;5031969;28;20033;-50
2021/05/01 05:10:09;;;;;;;14.60;8.48;;;;;;;23.05;48.77;99465.47;5031981;28;20033;-52
2021/05/01 05:12:34;;;;;;;16.20;8.45;;;;;;;23.23;48.23;99476.34;5030586;28;20494;-53
2021/05/01 05:15:00;;;;;;;17.17;8.35;;;;;;;23.49;47.77;99475.94;5032273;28;20033;-49
2021/05/01 05:17:26;;;;;;;16.85;8.73;;;;;;;23.53;47.66;99492.44;5032416;28;20049;-53
2021/05/01 05:19:52;;;;;;;19.90;8.57;;;;;;;24.06;46.70;99494.06;5032101;28;20562;-52
2021/05/01 05:22:17;;;;;;;15.77;8.77;;;;;;;24.46;45.47;99487.03;5032156;28;20072;-55
2021/05/01 05:24:42;;;;;;;18.50;8.82;;;;;;;24.61;44.86;99491.41;5032113;28;20126;-49
2021/05/01 05:27:08;;;;;;;20.15;8.52;;;;;;;24.86;44.20;99490.06;5031831;28;20025;-50
2021/05/01 05:29:34;;;;;;;14.52;7.70;;;;;;;25.07;43.87;99486.91;5032306;28;20036;-50
2021/05/01 05:31:59;;;;;;;20.23;9.25;;;;;;;25.32;43.59;99494.56;5031714;28;20029;-51
2021/05/01 05:34:25;;;;;;;19.10;9.82;;;;;;;25.45;43.24;99492.88;5030345;28;20223;-52
2021/05/01 05:36:50;;;;;;;16.30;8.85;;;;;;;25.52;42.85;99500.63;5031705;28;20430;-51
2021/05/01 05:39:16;;;;;;;23.08;8.75;;;;;;;25.51;42.86;99496.28;5031670;28;20033;-51
2021/05/01 05:41:42;;;;;;;19.10;9.40;;;;;;;25.36;42.92;99497.47;5031486;28;20397;-50
2021/05/01 05:44:08;;;;;;;17.60;8.88;;;;;;;25.39;43.37;99496.03;5031073;28;20496;-52
2021/05/01 05:46:33;;;;;;;17.08;9.00;;;;;;;25.46;42.86;99499.94;5031371;28;20033;-49
2021/05/01 05:48:58;;;;;;;19.38;8.80;;;;;;;25.50;42.86;99498.19;5031465;28;20413;-51
2021/05/01 05:51:24;;;;;;;22.40;11.52;;;;;;;25.15;44.09;99508.78;5031689;28;20107;-50
2021/05/01 05:53:49;;;;;;;13.75;7.93;;;;;;;25.38;43.65;99517.03;5031499;28;20022;-51
2021/05/01 05:56:15;;;;;;;14.65;7.45;;;;;;;25.28;43.74;99514.50;5031381;28;20363;-52
2021/05/01 05:58:41;;;;;;;15.02;8.52;;;;;;;25.66;42.74;99519.63;5031631;28;20061;-53
2021/05/01 06:01:06;;;;;;;19.67;7.53;;;;;;;26.13;41.86;99517.41;5031640;28;20045;-52
2021/05/01 06:03:32;;;;;;;13.23;7.55;;;;;;;26.24;41.46;99509.75;5031227;28;20060;-52
2021/05/01 06:06:23;;;;;;;16.65;8.85;;;;;;;26.66;40.83;99507.53;5013320;28;20375;-48
2021/05/01 06:08:49;;;;;;;15.65;8.50;;;;;;;26.91;40.45;99503.25;5026160;28;20049;-38
2021/05/01 06:11:17;;;;;;;15.73;8.38;;;;;;;27.46;39.28;99516.34;5029894;28;20094;-39
2021/05/01 06:13:43;;;;;;;17.60;8.80;;;;;;;27.49;39.25;99513.00;5031526;28;20091;-39
2021/05/01 06:16:09;;;;;;;15.35;6.65;;;;;;;27.93;38.34;99514.88;5030062;28;20055;-38
2021/05/01 06:18:35;;;;;;;14.38;6.28;;;;;;;28.22;37.62;99511.44;5013887;28;20041;-38
2021/05/01 06:21:01;;;;;;;12.88;5.82;;;;;;;28.40;37.57;99503.94;5031297;28;20096;-38
2021/05/01 06:23:26;;;;;;;14.23;6.13;;;;;;;28.52;37.17;99512.31;5031389;28;20485;-38
2021/05/01 06:25:52;;;;;;;12.07;6.30;;;;;;;29.01;36.20;99507.19;5029598;28;20497;-38
2021/05/01 06:28:17;;;;;;;18.98;10.13;;;;;;;29.54;35.50;99510.34;5031044;28;20029;-38
2021/05/01 06:30:44;;;;;;;16.77;10.55;;;;;;;29.77;35.24;99513.53;5028991;28;20048;-38
2021/05/01 06:33:11;;;;;;;15.27;6.75;;;;;;;29.89;35.08;99520.22;5030662;28;20029;-39
2021/05/01 06:35:41;;;;;;;15.00;5.85;;;;;;;30.46;34.02;99511.19;5030286;28;20025;-39
2021/05/01 06:38:06;;;;;;;13.43;6.13;;;;;;;30.65;33.55;99502.38;5031202;28;20068;-39
2021/05/01 06:40:40;;;;;;;11.43;5.97;;;;;;;30.78;32.78;99509.47;5030850;28;20049;-38
2021/05/01 06:43:49;;;;;;;16.35;6.80;;;;;;;31.30;31.75;99504.34;5030317;28;20492;-38
2021/05/01 06:46:17;;;;;;;12.05;6.35;;;;;;;30.45;33.54;99495.88;5030554;28;20532;-39
2021/05/01 06:48:44;;;;;;;19.08;6.70;;;;;;;29.92;34.55;99505.84;5028072;28;20435;-38
2021/05/01 06:51:09;;;;;;;14.60;5.85;;;;;;;30.69;33.04;99497.00;5001600;28;20091;-38
2021/05/01 06:53:36;;;;;;;14.77;5.72;;;;;;;31.25;32.67;99491.66;5009416;28;20020;-39
2021/05/01 06:56:03;;;;;;;13.23;6.03;;;;;;;30.28;33.15;99487.84;4993501;28;20017;-39
2021/05/01 06:58:30;;;;;;;11.85;6.78;;;;;;;31.19;32.13;99493.06;5010847;28;20033;-39
2021/05/01 07:00:57;;;;;;;44.33;29.88;;;;;;;31.32;31.67;99494.63;5011108;28;20018;-39
2021/05/01 07:03:22;;;;;;;25.83;16.60;;;;;;;31.79;30.47;99497.88;5009548;28;20018;-38
2021/05/01 07:05:49;;;;;;;36.15;21.05;;;;;;;32.01;30.40;99497.31;5009524;28;20488;-39
2021/05/01 07:08:14;;;;;;;14.63;6.97;;;;;;;32.31;30.56;99492.19;5010840;28;20079;-39
2021/05/01 07:10:40;;;;;;;12.88;6.68;;;;;;;32.35;30.35;99492.28;5010543;28;20022;-39
2021/05/01 07:13:05;;;;;;;11.80;5.80;;;;;;;32.18;30.26;99496.19;5014043;28;20498;-38
2021/05/01 07:15:31;;;;;;;9.02;4.68;;;;;;;32.76;28.41;99492.84;5010517;28;20036;-38
2021/05/01 07:17:56;;;;;;;19.95;5.07;;;;;;;32.65;28.80;99489.88;5029111;28;20066;-39
2021/05/01 07:20:22;;;;;;;12.65;5.40;;;;;;;32.53;29.55;99478.94;5026047;28;20531;-38
2021/05/01 07:22:51;;;;;;;13.93;5.20;;;;;;;32.62;29.22;99484.28;5010456;28;20336;-39
2021/05/01 07:25:17;;;;;;;13.27;5.45;;;;;;;32.46;29.08;99490.59;5010325;28;20034;-39
2021/05/01 07:27:51;;;;;;;12.38;4.95;;;;;;;32.79;27.96;99475.63;5009910;28;20029;-38
2021/05/01 07:30:18;;;;;;;14.95;6.00;;;;;;;32.49;28.34;99481.59;5009193;28;20037;-39
2021/05/01 07:32:43;;;;;;;13.32;4.40;;;;;;;32.86;28.14;99483.22;5009335;28;20486;-38
2021/05/01 07:35:09;;;;;;;8.95;4.40;;;;;;;33.37;27.45;99472.13;5009828;28;20032;-40
2021/05/01 07:37:36;;;;;;;11.40;4.43;;;;;;;33.92;26.78;99474.75;5008264;28;20044;-38
2021/05/01 07:40:04;;;;;;;12.32;4.72;;;;;;;33.82;26.83;99470.66;5009560;28;20450;-40
2021/05/01 07:42:29;;;;;;;17.45;6.32;;;;;;;33.74;27.42;99473.63;5025355;28;20038;-39
2021/05/01 07:44:56;;;;;;;14.23;6.00;;;;;;;33.78;27.84;99471.75;5011436;28;20041;-39
2021/05/01 07:47:22;;;;;;;15.77;5.68;;;;;;;34.50;26.97;99482.06;5012099;28;20037;-39
2021/05/01 07:49:48;;;;;;;14.32;5.93;;;;;;;34.16;26.79;99483.88;5031763;28;20030;-39
2021/05/01 07:52:13;;;;;;;21.42;11.57;;;;;;;32.61;28.90;99483.47;5030130;28;20476;-38
2021/05/01 07:54:42;;;;;;;17.92;5.85;;;;;;;33.05;28.39;99486.03;5029377;28;20433;-38
2021/05/01 07:57:08;;;;;;;17.13;5.70;;;;;;;32.68;28.72;99485.59;5032331;28;20040;-39
2021/05/01 07:59:34;;;;;;;13.77;4.85;;;;;;;32.53;29.03;99487.97;5031809;28;20044;-39
2021/05/01 08:01:59;;;;;;;15.50;4.88;;;;;;;32.72;28.89;99479.00;5032862;28;20055;-38
2021/05/01 08:04:24;;;;;;;12.95;5.10;;;;;;;32.75;29.37;99476.69;5033001;28;20037;-37
2021/05/01 08:06:50;;;;;;;12.93;4.85;;;;;;;32.81;29.79;99484.31;5032598;28;20029;-39
2021/05/01 08:09:15;;;;;;;13.45;5.45;;;;;;;33.07;29.09;99482.91;5031841;28;20442;-39
2021/05/01 08:11:41;;;;;;;19.75;5.47;;;;;;;32.70;29.39;99483.28;5032766;28;20395;-39
2021/05/01 08:14:06;;;;;;;11.63;5.43;;;;;;;33.31;28.35;99482.66;5033737;28;20025;-40
2021/05/01 08:16:32;;;;;;;17.27;6.07;;;;;;;33.64;27.34;99481.38;5033100;28;20033;-39
2021/05/01 08:18:58;;;;;;;14.75;4.97;;;;;;;32.52;29.23;99496.63;5033222;28;20045;-39
2021/05/01 08:21:23;;;;;;;9.57;4.68;;;;;;;32.85;29.17;99493.47;5033044;28;20084;-38
2021/05/01 08:23:49;;;;;;;11.77;5.00;;;;;;;32.60;29.94;99501.16;5032778;28;20481;-39
2021/05/01 08:26:14;;;;;;;14.50;5.00;;;;;;;33.35;28.99;99490.19;5032244;28;20036;-39
2021/05/01 08:28:40;;;;;;;11.65;4.35;;;;;;;33.63;28.53;99484.47;5031194;28;20409;-38
2021/05/01 08:31:05;;;;;;;11.43;4.63;;;;;;;33.96;27.65;99485.88;5032374;28;20033;-39
2021/05/01 08:33:32;;;;;;;11.90;4.50;;;;;;;33.73;27.65;99489.41;5032186;28;20037;-39
2021/05/01 08:35:57;;;;;;;10.05;4.30;;;;;;;34.13;27.79;99485.38;5031837;28;20489;-39
2021/05/01 08:38:24;;;;;;;12.93;4.40;;;;;;;33.08;28.93;99490.03;5032016;28;20025;-40
2021/05/01 08:40:50;;;;;;;13.95;4.70;;;;;;;33.80;28.12;99486.78;5032468;28;20143;-39
2021/05/01 08:43:16;;;;;;;8.80;4.80;;;;;;;34.47;27.29;99486.34;5032895;28;20472;-39
2021/05/01 08:45:44;;;;;;;13.35;4.60;;;;;;;34.53;27.64;99484.06;5032312;28;20044;-38
2021/05/01 08:48:10;;;;;;;13.38;4.32;;;;;;;34.57;26.91;99487.66;5031331;28;20032;-40
2021/05/01 08:50:47;;;;;;;13.43;4.40;;;;;;;34.74;27.09;99478.06;5032250;28;20037;-38
2021/05/01 08:53:12;;;;;;;13.38;5.20;;;;;;;34.30;27.97;99477.78;5031017;28;20029;-38
2021/05/01 08:55:38;;;;;;;15.35;4.70;;;;;;;34.51;27.42;99471.81;5032230;28;20025;-52
2021/05/01 08:58:05;;;;;;;15.65;4.82;;;;;;;34.43;27.21;99476.41;5031438;28;20030;-51
2021/05/01 09:00:31;;;;;;;14.70;4.80;;;;;;;34.00;27.83;99468.19;5032157;28;20037;-53
2021/05/01 09:02:59;;;;;;;15.32;5.05;;;;;;;34.05;27.83;99456.84;5032149;28;20025;-52
2021/05/01 09:05:25;;;;;;;14.70;4.70;;;;;;;34.26;27.27;99455.63;5021795;28;20418;-52
2021/05/01 09:07:50;;;;;;;11.30;4.47;;;;;;;34.44;27.79;99453.13;5030309;28;20030;-51
2021/05/01 09:10:16;;;;;;;11.73;4.43;;;;;;;34.49;28.03;99450.06;5030990;28;20025;-52
2021/05/01 09:12:45;;;;;;;14.07;4.80;;;;;;;35.56;26.70;99441.56;5048227;28;20059;-52
2021/05/01 09:15:21;;;;;;;11.85;4.70;;;;;;;34.00;27.42;99440.59;5029948;28;20021;-53
2021/05/01 09:17:47;;;;;;;11.00;4.70;;;;;;;32.91;28.70;99433.38;5042802;28;20074;-52
2021/05/01 09:20:14;;;;;;;14.00;4.50;;;;;;;33.07;28.76;99431.34;5036847;28;20112;-51
2021/05/01 09:23:07;;;;;;;12.48;5.00;;;;;;;33.44;29.29;99433.66;5048272;28;20128;-52
2021/05/01 09:25:59;;;;;;;14.18;4.40;;;;;;;33.41;28.66;99436.34;5034132;28;20063;-52
2021/05/01 09:28:26;;;;;;;11.52;4.68;;;;;;;34.13;28.05;99440.41;5031798;28;20029;-52
2021/05/01 09:31:09;;;;;;;14.30;4.50;;;;;;;34.73;26.44;99431.47;5017986;28;20064;-51
2021/05/01 09:33:35;;;;;;;11.70;4.70;;;;;;;35.53;26.02;99431.25;5042274;28;20022;-52
2021/05/01 09:36:34;;;;;;;8.35;4.38;;;;;;;34.95;26.58;99425.06;5044676;28;20032;-52
2021/05/01 09:39:03;;;;;;;13.20;4.90;;;;;;;35.60;26.54;99443.22;5027707;28;20154;-52
2021/05/01 09:41:33;;;;;;;12.13;4.95;;;;;;;35.73;25.11;99431.91;5042568;28;20112;-52
2021/05/01 09:44:05;;;;;;;12.85;5.38;;;;;;;34.35;26.80;99436.03;5042809;28;20029;-52
2021/05/01 09:46:36;;;;;;;17.60;5.22;;;;;;;34.24;26.85;99425.63;5034220;28;20072;-53
2021/05/01 09:49:22;;;;;;;12.45;5.50;;;;;;;34.18;27.42;99429.88;5037143;28;20520;-52
2021/05/01 09:51:58;;;;;;;10.90;5.25;;;;;;;34.41;26.91;99429.03;5038662;28;20029;-52
2021/05/01 09:54:34;;;;;;;12.70;4.85;;;;;;;34.85;26.87;99428.50;5047174;28;20021;-52
2021/05/01 09:57:09;;;;;;;10.48;5.13;;;;;;;34.45;26.97;99429.88;5033301;28;20056;-51
2021/05/01 09:59:41;;;;;;;14.05;5.10;;;;;;;33.41;27.98;99425.31;5041231;28;20052;-51
2021/05/01 10:02:11;;;;;;;10.50;4.72;;;;;;;33.90;28.81;99432.94;5044952;28;20039;-52
2021/05/01 10:04:37;;;;;;;15.52;4.75;;;;;;;34.11;27.07;99428.94;5029641;28;20051;-52
2021/05/01 10:07:12;;;;;;;14.38;5.10;;;;;;;34.43;27.39;99426.72;5035911;28;20021;-51
2021/05/01 10:09:41;;;;;;;12.80;4.47;;;;;;;34.61;26.92;99407.63;5040300;28;20045;-51
2021/05/01 10:12:14;;;;;;;10.95;4.28;;;;;;;34.74;26.33;99410.97;5044169;28;20045;-52
2021/05/01 10:14:47;;;;;;;13.38;5.18;;;;;;;35.33;26.20;99414.09;5031756;28;20052;-52
2021/05/01 10:17:17;;;;;;;12.70;4.85;;;;;;;36.40;25.08;99417.00;5036375;28;20021;-52
2021/05/01 10:20:01;;;;;;;11.00;4.80;;;;;;;36.86;24.56;99413.75;5039487;28;20108;-52
2021/05/01 10:22:32;;;;;;;13.00;4.97;;;;;;;37.24;24.55;99408.72;5047227;28;20033;-51
2021/05/01 10:24:59;;;;;;;7.28;4.07;;;;;;;37.46;23.36;99400.47;5035208;28;20075;-52
2021/05/01 10:27:25;;;;;;;12.10;4.80;;;;;;;37.88;22.67;99407.25;5042413;28;20494;-51
2021/05/01 10:33:48;;;;;;;19.30;7.35;;;;;;;38.50;22.78;99412.38;5025144;28;20049;-53
2021/05/01 10:36:04;;;;;;;13.80;4.68;;;;;;;36.46;23.35;99393.31;5033414;28;20072;-52
2021/05/01 10:38:29;;;;;;;13.07;4.55;;;;;;;35.48;25.69;99387.38;5046690;28;20385;-52
2021/05/01 10:40:56;;;;;;;11.30;4.88;;;;;;;35.23;25.76;99387.91;5032513;28;20091;-52
2021/05/01 10:43:24;;;;;;;15.15;5.13;;;;;;;36.00;25.43;99393.75;5042574;28;20112;-53
2021/05/01 10:46:12;;;;;;;15.63;6.30;;;;;;;35.48;26.28;99387.38;5040976;28;20128;-52
2021/05/01 10:48:47;;;;;;;22.95;8.75;;;;;;;36.33;24.80;99394.84;5033804;28;20111;-51
2021/05/01 10:51:13;;;;;;;12.35;4.85;;;;;;;35.15;27.18;99389.78;5043488;28;20030;-52
2021/05/01 10:53:39;;;;;;;33.78;13.07;;;;;;;35.66;27.12;99395.81;5039115;28;20029;-53
2021/05/01 10:56:05;;;;;;;19.63;7.32;;;;;;;36.77;25.48;99382.81;5036519;28;20052;-52
2021/05/01 10:58:38;;;;;;;10.15;4.60;;;;;;;37.53;24.76;99383.84;5046644;28;20086;-52
2021/05/01 11:01:05;;;;;;;10.98;4.50;;;;;;;37.73;23.57;99370.38;5035617;28;20025;-52
2021/05/01 11:03:30;;;;;;;15.60;4.30;;;;;;;37.51;22.81;99366.78;5039650;28;20061;-53
2021/05/01 11:05:59;;;;;;;14.52;4.65;;;;;;;36.38;24.32;99366.75;5041137;28;20079;-51
2021/05/01 11:08:41;;;;;;;12.93;4.95;;;;;;;36.25;24.45;99373.78;5031481;28;20397;-54
2021/05/01 11:11:10;;;;;;;12.98;4.43;;;;;;;37.29;23.57;99363.97;5020072;28;20037;-54
2021/05/01 11:13:36;;;;;;;10.73;4.35;;;;;;;36.94;24.04;99359.13;5038817;28;20110;-52
2021/05/01 11:16:05;;;;;;;8.27;3.90;;;;;;;38.11;22.60;99360.44;5041105;28;20036;-52
2021/05/01 11:18:31;;;;;;;13.18;4.30;;;;;;;38.08;22.78;99349.34;5031825;28;20052;-51
2021/05/01 11:20:58;;;;;;;9.43;4.63;;;;;;;38.15;23.29;99343.78;5023169;28;20038;-52
2021/05/01 11:23:26;;;;;;;14.48;4.30;;;;;;;38.12;21.57;99341.81;5026396;28;20404;-52
2021/05/01 11:25:54;;;;;;;12.33;4.00;;;;;;;38.58;21.88;99340.13;5037861;28;20052;-51
2021/05/01 11:28:19;;;;;;;;;;;;;;;37.43;23.18;99345.75;5046050;28;20263;-52